sensor_id;sensor_type;location;lat;lon;timestamp;temperature;humidity
17215;DHT22;8723;51.502;6.918;2023-06-22T00:00:50;21.60;1.00
17215;DHT22;8723;51.502;6.918;2023-06-22T00:03:18;21.70;1.00
17215;DHT22;8723;51.502;6.918;2023-06-22T00:05:47;21.60;1.00
17215;DHT22;8723;51.502;6.918;2023-06-22T00:08:14;21.60;1.00
17215;DHT22;8723;51.502;6.918;2023-06-22T00:10:41;21.60;1.00
17215;DHT22;8723;51.502;6.918;2023-06-22T00:13:09;21.60;1.00
17215;DHT22;8723;51.502;6.918;2023-06-22T00:15:37;21.60;1.00
17215;DHT22;8723;51.502;6.918;2023-06-22T00:18:05;21.60;1.00
17215;DHT22;8723;51.502;6.918;2023-06-22T00:20:32;21.60;1.00
17215;DHT22;8723;51.502;6.918;2023-06-22T00:23:05;21.50;1.00
17215;DHT22;8723;51.502;6.918;2023-06-22T00:25:34;21.50;1.00
17215;DHT22;8723;51.502;6.918;2023-06-22T00:28:01;21.40;1.00
17215;DHT22;8723;51.502;6.918;2023-06-22T00:30:28;21.50;1.00
17215;DHT22;8723;51.502;6.918;2023-06-22T00:32:55;21.50;1.00
17215;DHT22;8723;51.502;6.918;2023-06-22T00:35:22;21.40;1.00
17215;DHT22;8723;51.502;6.918;2023-06-22T00:37:54;21.30;1.00
17215;DHT22;8723;51.502;6.918;2023-06-22T00:40:27;21.20;1.00
17215;DHT22;8723;51.502;6.918;2023-06-22T00:42:54;21.30;1.00
17215;DHT22;8723;51.502;6.918;2023-06-22T00:45:21;21.30;1.00
17215;DHT22;8723;51.502;6.918;2023-06-22T00:47:50;21.40;1.00
17215;DHT22;8723;51.502;6.918;2023-06-22T00:50:20;21.40;1.00
17215;DHT22;8723;51.502;6.918;2023-06-22T00:52:49;21.30;1.00
17215;DHT22;8723;51.502;6.918;2023-06-22T00:55:18;21.40;1.00
17215;DHT22;8723;51.502;6.918;2023-06-22T00:57:46;21.40;1.00
17215;DHT22;8723;51.502;6.918;2023-06-22T01:00:15;21.40;1.00
17215;DHT22;8723;51.502;6.918;2023-06-22T01:02:43;21.30;1.00
17215;DHT22;8723;51.502;6.918;2023-06-22T01:05:12;21.20;1.00
17215;DHT22;8723;51.502;6.918;2023-06-22T01:07:43;21.20;1.00
17215;DHT22;8723;51.502;6.918;2023-06-22T01:10:14;21.20;1.00
17215;DHT22;8723;51.502;6.918;2023-06-22T01:12:48;21.20;1.00
17215;DHT22;8723;51.502;6.918;2023-06-22T01:15:23;21.00;1.00
17215;DHT22;8723;51.502;6.918;2023-06-22T01:17:52;21.00;1.00
17215;DHT22;8723;51.502;6.918;2023-06-22T01:20:20;20.90;1.00
17215;DHT22;8723;51.502;6.918;2023-06-22T01:23:02;20.80;1.00
17215;DHT22;8723;51.502;6.918;2023-06-22T01:25:38;20.80;1.00
17215;DHT22;8723;51.502;6.918;2023-06-22T01:28:22;20.80;1.00
17215;DHT22;8723;51.502;6.918;2023-06-22T01:30:51;20.90;1.00
17215;DHT22;8723;51.502;6.918;2023-06-22T01:33:33;20.90;1.00
17215;DHT22;8723;51.502;6.918;2023-06-22T01:36:01;20.80;1.00
17215;DHT22;8723;51.502;6.918;2023-06-22T01:38:29;20.70;1.00
17215;DHT22;8723;51.502;6.918;2023-06-22T01:40:58;20.60;1.00
17215;DHT22;8723;51.502;6.918;2023-06-22T01:43:29;20.70;1.00
17215;DHT22;8723;51.502;6.918;2023-06-22T01:46:02;20.60;1.00
17215;DHT22;8723;51.502;6.918;2023-06-22T01:48:30;20.60;1.00
17215;DHT22;8723;51.502;6.918;2023-06-22T01:50:59;20.70;1.00
17215;DHT22;8723;51.502;6.918;2023-06-22T01:53:29;20.70;1.00
17215;DHT22;8723;51.502;6.918;2023-06-22T01:55:59;20.60;1.00
17215;DHT22;8723;51.502;6.918;2023-06-22T01:58:30;20.70;1.00
17215;DHT22;8723;51.502;6.918;2023-06-22T02:01:09;20.60;1.00
17215;DHT22;8723;51.502;6.918;2023-06-22T02:03:42;20.60;1.00
17215;DHT22;8723;51.502;6.918;2023-06-22T02:06:17;20.70;1.00
17215;DHT22;8723;51.502;6.918;2023-06-22T02:08:54;20.60;1.00
17215;DHT22;8723;51.502;6.918;2023-06-22T02:11:22;20.70;1.00
17215;DHT22;8723;51.502;6.918;2023-06-22T02:13:51;20.60;1.00
17215;DHT22;8723;51.502;6.918;2023-06-22T02:16:20;20.60;1.00
17215;DHT22;8723;51.502;6.918;2023-06-22T02:18:49;20.60;1.00
17215;DHT22;8723;51.502;6.918;2023-06-22T02:21:20;20.60;1.00
17215;DHT22;8723;51.502;6.918;2023-06-22T02:23:50;20.50;1.00
17215;DHT22;8723;51.502;6.918;2023-06-22T02:26:19;20.50;1.00
17215;DHT22;8723;51.502;6.918;2023-06-22T02:28:48;20.60;1.00
17215;DHT22;8723;51.502;6.918;2023-06-22T02:31:16;20.70;1.00
17215;DHT22;8723;51.502;6.918;2023-06-22T02:33:48;20.60;1.00
17215;DHT22;8723;51.502;6.918;2023-06-22T02:36:17;20.60;1.00
17215;DHT22;8723;51.502;6.918;2023-06-22T02:38:50;20.50;1.00
17215;DHT22;8723;51.502;6.918;2023-06-22T02:41:18;20.50;1.00
17215;DHT22;8723;51.502;6.918;2023-06-22T02:43:45;20.50;1.00
17215;DHT22;8723;51.502;6.918;2023-06-22T02:46:12;20.50;1.00
17215;DHT22;8723;51.502;6.918;2023-06-22T02:48:39;20.50;1.00
17215;DHT22;8723;51.502;6.918;2023-06-22T02:51:07;20.50;1.00
17215;DHT22;8723;51.502;6.918;2023-06-22T02:53:34;20.50;1.00
17215;DHT22;8723;51.502;6.918;2023-06-22T02:56:02;20.50;1.00
17215;DHT22;8723;51.502;6.918;2023-06-22T02:58:30;20.50;1.00
17215;DHT22;8723;51.502;6.918;2023-06-22T03:01:00;20.40;1.00
17215;DHT22;8723;51.502;6.918;2023-06-22T03:03:31;20.50;1.00
17215;DHT22;8723;51.502;6.918;2023-06-22T03:06:01;20.40;1.00
17215;DHT22;8723;51.502;6.918;2023-06-22T03:08:33;20.40;1.00
17215;DHT22;8723;51.502;6.918;2023-06-22T03:11:02;20.30;1.00
17215;DHT22;8723;51.502;6.918;2023-06-22T03:13:30;20.30;1.00
17215;DHT22;8723;51.502;6.918;2023-06-22T03:15:56;20.30;1.00
17215;DHT22;8723;51.502;6.918;2023-06-22T03:18:23;20.30;1.00
17215;DHT22;8723;51.502;6.918;2023-06-22T03:20:50;20.20;1.00
17215;DHT22;8723;51.502;6.918;2023-06-22T03:23:17;20.20;1.00
17215;DHT22;8723;51.502;6.918;2023-06-22T03:25:45;20.30;1.00
17215;DHT22;8723;51.502;6.918;2023-06-22T03:28:12;20.30;1.00
17215;DHT22;8723;51.502;6.918;2023-06-22T03:30:39;20.30;1.00
17215;DHT22;8723;51.502;6.918;2023-06-22T03:33:06;20.30;1.00
17215;DHT22;8723;51.502;6.918;2023-06-22T03:35:33;20.20;1.00
17215;DHT22;8723;51.502;6.918;2023-06-22T03:37:59;20.20;1.00
17215;DHT22;8723;51.502;6.918;2023-06-22T03:40:26;20.20;1.00
17215;DHT22;8723;51.502;6.918;2023-06-22T03:42:55;20.20;1.00
17215;DHT22;8723;51.502;6.918;2023-06-22T03:45:22;20.30;1.00
17215;DHT22;8723;51.502;6.918;2023-06-22T03:47:49;20.20;1.00
17215;DHT22;8723;51.502;6.918;2023-06-22T03:50:15;20.30;1.00
17215;DHT22;8723;51.502;6.918;2023-06-22T03:52:42;20.20;1.00
17215;DHT22;8723;51.502;6.918;2023-06-22T03:55:09;20.20;1.00
17215;DHT22;8723;51.502;6.918;2023-06-22T03:57:36;20.20;1.00
17215;DHT22;8723;51.502;6.918;2023-06-22T04:00:05;20.20;1.00
17215;DHT22;8723;51.502;6.918;2023-06-22T04:02:33;20.20;1.00
17215;DHT22;8723;51.502;6.918;2023-06-22T04:05:00;20.10;1.00
17215;DHT22;8723;51.502;6.918;2023-06-22T04:07:27;20.20;1.00
17215;DHT22;8723;51.502;6.918;2023-06-22T04:09:53;20.20;1.00
17215;DHT22;8723;51.502;6.918;2023-06-22T04:12:20;20.30;1.00
17215;DHT22;8723;51.502;6.918;2023-06-22T04:14:47;20.30;1.00
17215;DHT22;8723;51.502;6.918;2023-06-22T04:17:15;20.30;1.00
17215;DHT22;8723;51.502;6.918;2023-06-22T04:19:43;20.30;1.00
17215;DHT22;8723;51.502;6.918;2023-06-22T04:22:10;20.30;1.00
17215;DHT22;8723;51.502;6.918;2023-06-22T04:24:37;20.30;1.00
17215;DHT22;8723;51.502;6.918;2023-06-22T04:27:05;20.30;1.00
17215;DHT22;8723;51.502;6.918;2023-06-22T04:29:32;20.30;1.00
17215;DHT22;8723;51.502;6.918;2023-06-22T04:31:59;20.40;1.00
17215;DHT22;8723;51.502;6.918;2023-06-22T04:34:29;20.50;1.00
17215;DHT22;8723;51.502;6.918;2023-06-22T04:36:56;20.50;1.00
17215;DHT22;8723;51.502;6.918;2023-06-22T04:39:23;20.60;1.00
17215;DHT22;8723;51.502;6.918;2023-06-22T04:41:52;20.60;1.00
17215;DHT22;8723;51.502;6.918;2023-06-22T04:44:20;20.60;1.00
17215;DHT22;8723;51.502;6.918;2023-06-22T04:46:50;20.60;1.00
17215;DHT22;8723;51.502;6.918;2023-06-22T04:49:20;20.70;1.00
17215;DHT22;8723;51.502;6.918;2023-06-22T04:51:49;20.70;1.00
17215;DHT22;8723;51.502;6.918;2023-06-22T04:54:17;20.70;1.00
17215;DHT22;8723;51.502;6.918;2023-06-22T04:56:44;20.70;1.00
17215;DHT22;8723;51.502;6.918;2023-06-22T04:59:12;20.80;1.00
17215;DHT22;8723;51.502;6.918;2023-06-22T05:01:38;20.80;1.00
17215;DHT22;8723;51.502;6.918;2023-06-22T05:04:05;20.90;1.00
17215;DHT22;8723;51.502;6.918;2023-06-22T05:06:33;20.80;1.00
17215;DHT22;8723;51.502;6.918;2023-06-22T05:09:01;20.70;1.00
17215;DHT22;8723;51.502;6.918;2023-06-22T05:11:29;20.70;1.00
17215;DHT22;8723;51.502;6.918;2023-06-22T05:13:56;20.70;1.00
17215;DHT22;8723;51.502;6.918;2023-06-22T05:16:23;20.70;1.00
17215;DHT22;8723;51.502;6.918;2023-06-22T05:18:52;20.70;1.00
17215;DHT22;8723;51.502;6.918;2023-06-22T05:21:22;20.70;1.00
17215;DHT22;8723;51.502;6.918;2023-06-22T05:23:49;20.70;1.00
17215;DHT22;8723;51.502;6.918;2023-06-22T05:26:18;20.70;1.00
17215;DHT22;8723;51.502;6.918;2023-06-22T05:28:45;20.70;1.00
17215;DHT22;8723;51.502;6.918;2023-06-22T05:31:13;20.80;1.00
17215;DHT22;8723;51.502;6.918;2023-06-22T05:33:40;20.80;1.00
17215;DHT22;8723;51.502;6.918;2023-06-22T05:36:07;20.70;1.00
17215;DHT22;8723;51.502;6.918;2023-06-22T05:38:34;20.60;1.00
17215;DHT22;8723;51.502;6.918;2023-06-22T05:41:01;20.60;1.00
17215;DHT22;8723;51.502;6.918;2023-06-22T05:43:29;20.70;1.00
17215;DHT22;8723;51.502;6.918;2023-06-22T05:45:56;20.80;1.00
17215;DHT22;8723;51.502;6.918;2023-06-22T05:48:23;20.90;1.00
17215;DHT22;8723;51.502;6.918;2023-06-22T05:50:50;20.80;1.00
17215;DHT22;8723;51.502;6.918;2023-06-22T05:53:17;20.90;1.00
17215;DHT22;8723;51.502;6.918;2023-06-22T05:55:44;20.90;1.00
17215;DHT22;8723;51.502;6.918;2023-06-22T05:58:11;21.00;1.00
17215;DHT22;8723;51.502;6.918;2023-06-22T06:00:40;21.00;1.00
17215;DHT22;8723;51.502;6.918;2023-06-22T06:03:08;20.90;1.00
17215;DHT22;8723;51.502;6.918;2023-06-22T06:05:36;20.80;1.00
17215;DHT22;8723;51.502;6.918;2023-06-22T06:08:04;20.80;1.00
17215;DHT22;8723;51.502;6.918;2023-06-22T06:10:31;20.70;1.00
17215;DHT22;8723;51.502;6.918;2023-06-22T06:12:58;20.60;1.00
17215;DHT22;8723;51.502;6.918;2023-06-22T06:15:27;20.50;1.00
17215;DHT22;8723;51.502;6.918;2023-06-22T06:17:55;20.50;6.80
17215;DHT22;8723;51.502;6.918;2023-06-22T06:20:24;20.50;99.90
17215;DHT22;8723;51.502;6.918;2023-06-22T06:22:51;20.40;99.90
17215;DHT22;8723;51.502;6.918;2023-06-22T06:25:18;20.40;69.80
17215;DHT22;8723;51.502;6.918;2023-06-22T06:27:48;20.40;99.90
17215;DHT22;8723;51.502;6.918;2023-06-22T06:30:17;20.30;98.70
17215;DHT22;8723;51.502;6.918;2023-06-22T06:32:45;20.30;99.90
17215;DHT22;8723;51.502;6.918;2023-06-22T06:35:15;20.30;99.90
17215;DHT22;8723;51.502;6.918;2023-06-22T06:37:43;20.30;1.00
17215;DHT22;8723;51.502;6.918;2023-06-22T06:40:11;20.30;99.90
17215;DHT22;8723;51.502;6.918;2023-06-22T06:42:39;20.30;1.00
17215;DHT22;8723;51.502;6.918;2023-06-22T06:45:08;20.20;1.00
17215;DHT22;8723;51.502;6.918;2023-06-22T06:47:35;20.20;1.00
17215;DHT22;8723;51.502;6.918;2023-06-22T06:50:03;20.20;1.00
17215;DHT22;8723;51.502;6.918;2023-06-22T06:52:32;20.20;48.00
17215;DHT22;8723;51.502;6.918;2023-06-22T06:54:59;20.20;1.00
17215;DHT22;8723;51.502;6.918;2023-06-22T06:57:26;20.20;1.00
17215;DHT22;8723;51.502;6.918;2023-06-22T06:59:54;20.20;99.90
17215;DHT22;8723;51.502;6.918;2023-06-22T07:02:21;20.20;99.90
17215;DHT22;8723;51.502;6.918;2023-06-22T07:04:48;20.10;82.40
17215;DHT22;8723;51.502;6.918;2023-06-22T07:07:15;20.20;50.40
17215;DHT22;8723;51.502;6.918;2023-06-22T07:09:43;20.30;99.90
17215;DHT22;8723;51.502;6.918;2023-06-22T07:12:10;20.30;1.00
17215;DHT22;8723;51.502;6.918;2023-06-22T07:14:37;20.30;99.10
17215;DHT22;8723;51.502;6.918;2023-06-22T07:17:04;20.40;16.70
17215;DHT22;8723;51.502;6.918;2023-06-22T07:19:32;20.40;1.00
17215;DHT22;8723;51.502;6.918;2023-06-22T07:21:59;20.30;1.00
17215;DHT22;8723;51.502;6.918;2023-06-22T07:24:26;20.40;1.00
17215;DHT22;8723;51.502;6.918;2023-06-22T07:26:54;20.50;1.00
17215;DHT22;8723;51.502;6.918;2023-06-22T07:29:24;20.40;1.00
17215;DHT22;8723;51.502;6.918;2023-06-22T07:31:52;20.50;1.00
17215;DHT22;8723;51.502;6.918;2023-06-22T07:34:21;20.50;99.90
17215;DHT22;8723;51.502;6.918;2023-06-22T07:36:48;20.50;1.00
17215;DHT22;8723;51.502;6.918;2023-06-22T07:39:15;20.50;1.00
17215;DHT22;8723;51.502;6.918;2023-06-22T07:41:42;20.50;1.00
17215;DHT22;8723;51.502;6.918;2023-06-22T07:44:10;20.60;1.00
17215;DHT22;8723;51.502;6.918;2023-06-22T07:46:37;20.70;99.90
17215;DHT22;8723;51.502;6.918;2023-06-22T07:49:03;20.80;99.90
17215;DHT22;8723;51.502;6.918;2023-06-22T07:51:30;20.80;99.90
17215;DHT22;8723;51.502;6.918;2023-06-22T07:53:57;20.90;43.20
17215;DHT22;8723;51.502;6.918;2023-06-22T07:56:24;20.90;14.90
17215;DHT22;8723;51.502;6.918;2023-06-22T07:58:51;21.00;99.90
17215;DHT22;8723;51.502;6.918;2023-06-22T08:01:20;21.10;20.60
17215;DHT22;8723;51.502;6.918;2023-06-22T08:03:47;21.20;60.70
17215;DHT22;8723;51.502;6.918;2023-06-22T08:06:14;21.30;37.30
17215;DHT22;8723;51.502;6.918;2023-06-22T08:08:41;21.30;60.00
17215;DHT22;8723;51.502;6.918;2023-06-22T08:11:09;21.40;1.00
17215;DHT22;8723;51.502;6.918;2023-06-22T08:13:36;21.50;1.00
17215;DHT22;8723;51.502;6.918;2023-06-22T08:16:03;21.60;1.00
17215;DHT22;8723;51.502;6.918;2023-06-22T08:18:31;21.70;1.00
17215;DHT22;8723;51.502;6.918;2023-06-22T08:20:58;21.90;1.00
17215;DHT22;8723;51.502;6.918;2023-06-22T08:23:24;22.10;1.00
17215;DHT22;8723;51.502;6.918;2023-06-22T08:25:51;22.20;1.00
17215;DHT22;8723;51.502;6.918;2023-06-22T08:28:18;22.30;1.00
17215;DHT22;8723;51.502;6.918;2023-06-22T08:30:45;22.50;1.00
17215;DHT22;8723;51.502;6.918;2023-06-22T08:33:12;22.70;1.00
17215;DHT22;8723;51.502;6.918;2023-06-22T08:35:40;22.80;1.00
17215;DHT22;8723;51.502;6.918;2023-06-22T08:38:07;22.90;1.00
17215;DHT22;8723;51.502;6.918;2023-06-22T08:40:34;23.00;1.00
17215;DHT22;8723;51.502;6.918;2023-06-22T08:43:01;23.00;1.00
17215;DHT22;8723;51.502;6.918;2023-06-22T08:45:28;22.90;1.00
17215;DHT22;8723;51.502;6.918;2023-06-22T08:47:54;23.00;1.00
17215;DHT22;8723;51.502;6.918;2023-06-22T08:50:21;23.00;1.00
17215;DHT22;8723;51.502;6.918;2023-06-22T08:52:49;23.00;1.00
17215;DHT22;8723;51.502;6.918;2023-06-22T08:55:16;23.10;1.00
17215;DHT22;8723;51.502;6.918;2023-06-22T08:57:43;23.10;1.00
17215;DHT22;8723;51.502;6.918;2023-06-22T09:00:11;23.20;1.00
17215;DHT22;8723;51.502;6.918;2023-06-22T09:02:46;23.20;1.00
17215;DHT22;8723;51.502;6.918;2023-06-22T09:05:13;23.10;1.00
17215;DHT22;8723;51.502;6.918;2023-06-22T09:07:40;23.20;1.00
17215;DHT22;8723;51.502;6.918;2023-06-22T09:10:09;23.10;1.00
17215;DHT22;8723;51.502;6.918;2023-06-22T09:12:36;23.20;1.00
17215;DHT22;8723;51.502;6.918;2023-06-22T09:15:04;23.20;1.00
17215;DHT22;8723;51.502;6.918;2023-06-22T09:17:33;23.30;1.00
17215;DHT22;8723;51.502;6.918;2023-06-22T09:20:00;23.40;1.00
17215;DHT22;8723;51.502;6.918;2023-06-22T09:22:29;23.50;1.00
17215;DHT22;8723;51.502;6.918;2023-06-22T09:24:56;23.50;1.00
17215;DHT22;8723;51.502;6.918;2023-06-22T09:27:25;23.60;1.00
17215;DHT22;8723;51.502;6.918;2023-06-22T09:29:51;23.70;1.00
17215;DHT22;8723;51.502;6.918;2023-06-22T09:32:18;23.80;1.00
17215;DHT22;8723;51.502;6.918;2023-06-22T09:34:45;23.90;1.00
17215;DHT22;8723;51.502;6.918;2023-06-22T09:37:12;23.90;1.00
17215;DHT22;8723;51.502;6.918;2023-06-22T09:39:39;23.80;1.00
17215;DHT22;8723;51.502;6.918;2023-06-22T09:42:06;23.80;1.00
17215;DHT22;8723;51.502;6.918;2023-06-22T09:44:34;23.80;1.00
17215;DHT22;8723;51.502;6.918;2023-06-22T09:47:01;23.80;1.00
17215;DHT22;8723;51.502;6.918;2023-06-22T09:49:28;23.90;1.00
17215;DHT22;8723;51.502;6.918;2023-06-22T09:51:54;24.00;1.00
17215;DHT22;8723;51.502;6.918;2023-06-22T09:54:21;23.90;1.00
17215;DHT22;8723;51.502;6.918;2023-06-22T09:56:48;24.00;1.00
17215;DHT22;8723;51.502;6.918;2023-06-22T09:59:15;24.10;1.00
17215;DHT22;8723;51.502;6.918;2023-06-22T10:01:43;24.20;1.00
17215;DHT22;8723;51.502;6.918;2023-06-22T10:04:10;24.30;1.00
17215;DHT22;8723;51.502;6.918;2023-06-22T10:06:37;24.40;1.00
17215;DHT22;8723;51.502;6.918;2023-06-22T10:09:06;24.60;1.00
17215;DHT22;8723;51.502;6.918;2023-06-22T10:11:32;24.80;1.00
17215;DHT22;8723;51.502;6.918;2023-06-22T10:14:00;25.00;1.00
17215;DHT22;8723;51.502;6.918;2023-06-22T10:16:31;25.30;1.00
17215;DHT22;8723;51.502;6.918;2023-06-22T10:18:59;25.40;1.00
17215;DHT22;8723;51.502;6.918;2023-06-22T10:21:26;25.50;1.00
17215;DHT22;8723;51.502;6.918;2023-06-22T10:23:54;25.70;1.00
17215;DHT22;8723;51.502;6.918;2023-06-22T10:26:20;25.70;1.00
17215;DHT22;8723;51.502;6.918;2023-06-22T10:28:47;25.90;1.00
17215;DHT22;8723;51.502;6.918;2023-06-22T10:31:14;26.10;1.00
17215;DHT22;8723;51.502;6.918;2023-06-22T10:33:42;26.20;1.00
17215;DHT22;8723;51.502;6.918;2023-06-22T10:36:11;26.40;1.00
17215;DHT22;8723;51.502;6.918;2023-06-22T10:38:37;26.50;1.00
17215;DHT22;8723;51.502;6.918;2023-06-22T10:41:04;26.70;1.00
17215;DHT22;8723;51.502;6.918;2023-06-22T10:43:31;26.70;1.00
17215;DHT22;8723;51.502;6.918;2023-06-22T10:45:58;26.60;1.00
17215;DHT22;8723;51.502;6.918;2023-06-22T10:48:25;26.70;1.00
17215;DHT22;8723;51.502;6.918;2023-06-22T10:50:51;26.60;1.00
17215;DHT22;8723;51.502;6.918;2023-06-22T10:53:20;26.60;1.00
17215;DHT22;8723;51.502;6.918;2023-06-22T10:55:47;26.70;1.00
17215;DHT22;8723;51.502;6.918;2023-06-22T10:58:13;26.60;1.00
17215;DHT22;8723;51.502;6.918;2023-06-22T11:00:40;26.60;1.00
17215;DHT22;8723;51.502;6.918;2023-06-22T11:03:07;26.50;1.00
17215;DHT22;8723;51.502;6.918;2023-06-22T11:05:34;26.50;1.00
17215;DHT22;8723;51.502;6.918;2023-06-22T11:08:01;26.60;1.00
17215;DHT22;8723;51.502;6.918;2023-06-22T11:10:29;26.40;1.00
17215;DHT22;8723;51.502;6.918;2023-06-22T11:12:56;26.30;1.00
17215;DHT22;8723;51.502;6.918;2023-06-22T11:15:23;26.30;1.00
17215;DHT22;8723;51.502;6.918;2023-06-22T11:17:50;26.10;1.00
17215;DHT22;8723;51.502;6.918;2023-06-22T11:20:17;26.00;1.00
17215;DHT22;8723;51.502;6.918;2023-06-22T11:22:43;26.00;1.00
17215;DHT22;8723;51.502;6.918;2023-06-22T11:25:10;25.80;1.00
17215;DHT22;8723;51.502;6.918;2023-06-22T11:27:39;25.70;1.00
17215;DHT22;8723;51.502;6.918;2023-06-22T11:30:07;25.50;1.00
17215;DHT22;8723;51.502;6.918;2023-06-22T11:32:34;25.50;1.00
17215;DHT22;8723;51.502;6.918;2023-06-22T11:35:01;25.30;1.00
17215;DHT22;8723;51.502;6.918;2023-06-22T11:37:27;25.20;1.00
17215;DHT22;8723;51.502;6.918;2023-06-22T11:39:54;25.20;1.00
17215;DHT22;8723;51.502;6.918;2023-06-22T11:42:21;25.00;1.00
17215;DHT22;8723;51.502;6.918;2023-06-22T11:44:50;24.80;1.00
17215;DHT22;8723;51.502;6.918;2023-06-22T11:47:17;24.60;1.00
17215;DHT22;8723;51.502;6.918;2023-06-22T11:49:44;24.50;1.00
17215;DHT22;8723;51.502;6.918;2023-06-22T11:52:10;24.40;1.00
17215;DHT22;8723;51.502;6.918;2023-06-22T11:54:37;24.40;1.00
17215;DHT22;8723;51.502;6.918;2023-06-22T11:57:05;24.20;1.00
17215;DHT22;8723;51.502;6.918;2023-06-22T11:59:31;24.10;84.70
17215;DHT22;8723;51.502;6.918;2023-06-22T12:02:00;24.00;99.90
17215;DHT22;8723;51.502;6.918;2023-06-22T12:04:26;23.90;99.90
17215;DHT22;8723;51.502;6.918;2023-06-22T12:06:53;23.80;99.90
17215;DHT22;8723;51.502;6.918;2023-06-22T12:09:20;23.50;1.00
17215;DHT22;8723;51.502;6.918;2023-06-22T12:11:47;23.40;1.00
17215;DHT22;8723;51.502;6.918;2023-06-22T12:14:13;23.20;1.00
17215;DHT22;8723;51.502;6.918;2023-06-22T12:16:40;23.00;1.00
17215;DHT22;8723;51.502;6.918;2023-06-22T12:19:10;22.90;99.90
17215;DHT22;8723;51.502;6.918;2023-06-22T12:21:37;22.90;99.90
17215;DHT22;8723;51.502;6.918;2023-06-22T12:24:05;22.80;35.10
17215;DHT22;8723;51.502;6.918;2023-06-22T12:26:31;22.60;1.00
17215;DHT22;8723;51.502;6.918;2023-06-22T12:28:58;22.60;1.00
17215;DHT22;8723;51.502;6.918;2023-06-22T12:31:25;22.60;99.90
17215;DHT22;8723;51.502;6.918;2023-06-22T12:33:52;22.60;99.90
17215;DHT22;8723;51.502;6.918;2023-06-22T12:36:20;22.60;99.90
17215;DHT22;8723;51.502;6.918;2023-06-22T12:38:47;22.50;73.50
17215;DHT22;8723;51.502;6.918;2023-06-22T12:41:13;22.60;99.90
17215;DHT22;8723;51.502;6.918;2023-06-22T12:43:40;22.80;28.50
17215;DHT22;8723;51.502;6.918;2023-06-22T12:46:07;23.00;99.90
17215;DHT22;8723;51.502;6.918;2023-06-22T12:48:34;23.00;1.00
17215;DHT22;8723;51.502;6.918;2023-06-22T12:51:07;23.10;99.90
17215;DHT22;8723;51.502;6.918;2023-06-22T12:53:35;23.20;1.00
17215;DHT22;8723;51.502;6.918;2023-06-22T12:56:02;23.30;1.00
17215;DHT22;8723;51.502;6.918;2023-06-22T12:58:29;23.40;99.90
17215;DHT22;8723;51.502;6.918;2023-06-22T13:00:56;23.50;99.90
17215;DHT22;8723;51.502;6.918;2023-06-22T13:03:22;23.60;1.00
17215;DHT22;8723;51.502;6.918;2023-06-22T13:05:51;23.60;1.00
17215;DHT22;8723;51.502;6.918;2023-06-22T13:08:18;23.50;99.90
17215;DHT22;8723;51.502;6.918;2023-06-22T13:10:46;23.50;99.90
17215;DHT22;8723;51.502;6.918;2023-06-22T13:13:13;23.30;99.90
17215;DHT22;8723;51.502;6.918;2023-06-22T13:15:39;23.40;1.00
17215;DHT22;8723;51.502;6.918;2023-06-22T13:18:06;23.50;99.90
17215;DHT22;8723;51.502;6.918;2023-06-22T13:20:33;23.40;99.90
17215;DHT22;8723;51.502;6.918;2023-06-22T13:23:00;23.40;1.00
17215;DHT22;8723;51.502;6.918;2023-06-22T13:25:27;23.40;1.00
17215;DHT22;8723;51.502;6.918;2023-06-22T13:27:55;23.40;99.90
17215;DHT22;8723;51.502;6.918;2023-06-22T13:30:24;23.40;1.00
17215;DHT22;8723;51.502;6.918;2023-06-22T13:32:50;23.40;99.90
17215;DHT22;8723;51.502;6.918;2023-06-22T13:35:17;23.40;99.90
17215;DHT22;8723;51.502;6.918;2023-06-22T13:37:44;23.30;99.90
17215;DHT22;8723;51.502;6.918;2023-06-22T13:40:11;23.40;99.90
17215;DHT22;8723;51.502;6.918;2023-06-22T13:42:38;23.50;99.90
17215;DHT22;8723;51.502;6.918;2023-06-22T13:45:07;23.60;99.90
17215;DHT22;8723;51.502;6.918;2023-06-22T13:47:34;23.60;99.90
17215;DHT22;8723;51.502;6.918;2023-06-22T13:50:01;23.70;99.90
17215;DHT22;8723;51.502;6.918;2023-06-22T13:52:28;23.70;99.90
17215;DHT22;8723;51.502;6.918;2023-06-22T13:54:55;23.70;99.90
17215;DHT22;8723;51.502;6.918;2023-06-22T13:57:21;23.80;99.90
17215;DHT22;8723;51.502;6.918;2023-06-22T13:59:48;23.80;99.90
17215;DHT22;8723;51.502;6.918;2023-06-22T14:02:16;23.90;99.30
17215;DHT22;8723;51.502;6.918;2023-06-22T14:04:43;24.00;69.50
17215;DHT22;8723;51.502;6.918;2023-06-22T14:07:10;24.00;1.00
17215;DHT22;8723;51.502;6.918;2023-06-22T14:09:37;24.10;17.20
17215;DHT22;8723;51.502;6.918;2023-06-22T14:12:04;24.30;1.00
17215;DHT22;8723;51.502;6.918;2023-06-22T14:14:31;24.30;1.00
17215;DHT22;8723;51.502;6.918;2023-06-22T14:16:58;24.10;1.00
17215;DHT22;8723;51.502;6.918;2023-06-22T14:19:26;24.10;1.00
17215;DHT22;8723;51.502;6.918;2023-06-22T14:21:53;24.00;1.00
17215;DHT22;8723;51.502;6.918;2023-06-22T14:24:20;24.00;1.00
17215;DHT22;8723;51.502;6.918;2023-06-22T14:26:46;24.00;1.00
17215;DHT22;8723;51.502;6.918;2023-06-22T14:29:13;23.90;1.00
17215;DHT22;8723;51.502;6.918;2023-06-22T14:31:40;23.90;1.00
17215;DHT22;8723;51.502;6.918;2023-06-22T14:34:07;23.90;1.00
17215;DHT22;8723;51.502;6.918;2023-06-22T14:36:35;23.90;1.00
17215;DHT22;8723;51.502;6.918;2023-06-22T14:39:02;23.90;1.00
17215;DHT22;8723;51.502;6.918;2023-06-22T14:41:30;23.90;1.00
17215;DHT22;8723;51.502;6.918;2023-06-22T14:43:56;24.00;1.00
17215;DHT22;8723;51.502;6.918;2023-06-22T14:46:23;23.80;1.00
17215;DHT22;8723;51.502;6.918;2023-06-22T14:48:50;23.70;1.00
17215;DHT22;8723;51.502;6.918;2023-06-22T14:51:17;23.70;1.00
17215;DHT22;8723;51.502;6.918;2023-06-22T14:53:46;23.60;1.00
17215;DHT22;8723;51.502;6.918;2023-06-22T14:56:13;23.80;1.00
17215;DHT22;8723;51.502;6.918;2023-06-22T14:58:40;23.90;1.00
17215;DHT22;8723;51.502;6.918;2023-06-22T15:01:11;23.90;1.00
17215;DHT22;8723;51.502;6.918;2023-06-22T15:03:38;23.90;1.00
17215;DHT22;8723;51.502;6.918;2023-06-22T15:06:05;23.80;1.00
17215;DHT22;8723;51.502;6.918;2023-06-22T15:08:31;23.90;1.00
17215;DHT22;8723;51.502;6.918;2023-06-22T15:11:00;24.00;1.00
17215;DHT22;8723;51.502;6.918;2023-06-22T15:13:30;24.00;1.00
17215;DHT22;8723;51.502;6.918;2023-06-22T15:15:58;24.00;1.00
17215;DHT22;8723;51.502;6.918;2023-06-22T15:18:24;24.10;1.00
17215;DHT22;8723;51.502;6.918;2023-06-22T15:20:51;23.90;1.00
17215;DHT22;8723;51.502;6.918;2023-06-22T15:23:18;24.00;78.50
17215;DHT22;8723;51.502;6.918;2023-06-22T15:25:46;24.00;2.50
17215;DHT22;8723;51.502;6.918;2023-06-22T15:28:14;23.90;1.00
17215;DHT22;8723;51.502;6.918;2023-06-22T15:30:41;24.00;1.00
17215;DHT22;8723;51.502;6.918;2023-06-22T15:33:07;24.00;1.00
17215;DHT22;8723;51.502;6.918;2023-06-22T15:35:35;24.00;1.00
17215;DHT22;8723;51.502;6.918;2023-06-22T15:38:02;24.00;1.00
17215;DHT22;8723;51.502;6.918;2023-06-22T15:40:29;24.00;1.00
17215;DHT22;8723;51.502;6.918;2023-06-22T15:42:56;24.00;1.00
17215;DHT22;8723;51.502;6.918;2023-06-22T15:45:24;23.80;1.00
17215;DHT22;8723;51.502;6.918;2023-06-22T15:47:51;23.70;1.00
17215;DHT22;8723;51.502;6.918;2023-06-22T15:50:18;23.80;1.00
17215;DHT22;8723;51.502;6.918;2023-06-22T15:52:45;23.70;1.00
17215;DHT22;8723;51.502;6.918;2023-06-22T15:55:16;23.70;1.00
17215;DHT22;8723;51.502;6.918;2023-06-22T15:57:43;23.70;1.00
17215;DHT22;8723;51.502;6.918;2023-06-22T16:00:12;23.60;1.00
17215;DHT22;8723;51.502;6.918;2023-06-22T16:02:41;23.60;1.00